sensor_id;sensor_type;location;lat;lon;timestamp;pressure;altitude;pressure_sealevel;temperature;humidity
34370;BME280;20635;55.812;37.560;2022-12-20T00:00:46;100521.72;;;25.83;41.43
34370;BME280;20635;55.812;37.560;2022-12-20T00:03:12;100512.44;;;25.83;41.18
34370;BME280;20635;55.812;37.560;2022-12-20T00:05:39;100515.78;;;25.85;41.10
34370;BME280;20635;55.812;37.560;2022-12-20T00:08:06;100507.66;;;25.83;40.98
34370;BME280;20635;55.812;37.560;2022-12-20T00:10:40;100500.59;;;25.86;41.31
34370;BME280;20635;55.812;37.560;2022-12-20T00:13:06;100513.28;;;25.83;41.35
34370;BME280;20635;55.812;37.560;2022-12-20T00:15:33;100506.50;;;25.84;41.33
34370;BME280;20635;55.812;37.560;2022-12-20T00:17:59;100498.09;;;25.84;40.97
34370;BME280;20635;55.812;37.560;2022-12-20T00:20:26;100527.03;;;25.85;41.08
34370;BME280;20635;55.812;37.560;2022-12-20T00:22:52;100527.84;;;25.85;41.02
34370;BME280;20635;55.812;37.560;2022-12-20T00:25:20;100510.19;;;25.85;40.74
34370;BME280;20635;55.812;37.560;2022-12-20T00:27:47;100523.34;;;25.84;40.80
34370;BME280;20635;55.812;37.560;2022-12-20T00:30:13;100506.50;;;25.84;40.47
34370;BME280;20635;55.812;37.560;2022-12-20T00:32:40;100498.94;;;25.85;40.74
34370;BME280;20635;55.812;37.560;2022-12-20T00:35:07;100505.38;;;25.85;40.83
34370;BME280;20635;55.812;37.560;2022-12-20T00:37:33;100499.78;;;25.85;41.47
34370;BME280;20635;55.812;37.560;2022-12-20T00:40:00;100493.34;;;25.85;41.47
34370;BME280;20635;55.812;37.560;2022-12-20T00:42:26;100482.09;;;25.85;41.14
34370;BME280;20635;55.812;37.560;2022-12-20T00:44:52;100485.72;;;25.85;41.21
34370;BME280;20635;55.812;37.560;2022-12-20T00:47:18;100478.13;;;25.86;41.03
34370;BME280;20635;55.812;37.560;2022-12-20T00:49:44;100471.69;;;25.85;41.12
34370;BME280;20635;55.812;37.560;2022-12-20T00:52:10;100461.28;;;25.86;40.91
34370;BME280;20635;55.812;37.560;2022-12-20T00:54:37;100455.97;;;25.84;40.56
34370;BME280;20635;55.812;37.560;2022-12-20T00:57:03;100454.03;;;25.85;40.79
34370;BME280;20635;55.812;37.560;2022-12-20T00:59:32;100444.44;;;25.86;40.79
34370;BME280;20635;55.812;37.560;2022-12-20T01:01:58;100442.78;;;25.85;40.70
34370;BME280;20635;55.812;37.560;2022-12-20T01:04:24;100451.50;;;25.83;41.20
34370;BME280;20635;55.812;37.560;2022-12-20T01:06:51;100435.50;;;25.84;40.65
34370;BME280;20635;55.812;37.560;2022-12-20T01:09:17;100456.84;;;25.85;41.06
34370;BME280;20635;55.812;37.560;2022-12-20T01:11:43;100461.91;;;25.83;40.80
34370;BME280;20635;55.812;37.560;2022-12-20T01:14:14;100461.59;;;25.84;41.07
34370;BME280;20635;55.812;37.560;2022-12-20T01:16:42;100458.78;;;25.84;41.18
34370;BME280;20635;55.812;37.560;2022-12-20T01:19:11;100461.91;;;25.83;41.15
34370;BME280;20635;55.812;37.560;2022-12-20T01:21:38;100449.84;;;25.82;41.15
34370;BME280;20635;55.812;37.560;2022-12-20T01:24:12;100436.66;;;25.83;40.81
34370;BME280;20635;55.812;37.560;2022-12-20T01:26:39;100455.47;;;25.82;40.69
34370;BME280;20635;55.812;37.560;2022-12-20T01:29:05;100448.22;;;25.81;40.64
34370;BME280;20635;55.812;37.560;2022-12-20T01:31:31;100445.06;;;25.83;40.71
34370;BME280;20635;55.812;37.560;2022-12-20T01:33:57;100430.22;;;25.82;40.87
34370;BME280;20635;55.812;37.560;2022-12-20T01:36:29;100448.72;;;25.83;40.66
34370;BME280;20635;55.812;37.560;2022-12-20T01:39:00;100435.31;;;25.80;40.78
34370;BME280;20635;55.812;37.560;2022-12-20T01:41:27;100439.78;;;25.81;40.76
34370;BME280;20635;55.812;37.560;2022-12-20T01:43:56;100437.81;;;25.82;41.17
34370;BME280;20635;55.812;37.560;2022-12-20T01:46:24;100436.97;;;25.81;40.76
34370;BME280;20635;55.812;37.560;2022-12-20T01:49:05;100421.97;;;25.86;40.88
34370;BME280;20635;55.812;37.560;2022-12-20T01:51:37;100433.84;;;25.83;40.82
34370;BME280;20635;55.812;37.560;2022-12-20T01:54:09;100434.16;;;25.81;41.04
34370;BME280;20635;55.812;37.560;2022-12-20T01:56:37;100421.78;;;25.82;40.29
34370;BME280;20635;55.812;37.560;2022-12-20T01:59:05;100422.59;;;25.83;40.94
34370;BME280;20635;55.812;37.560;2022-12-20T02:01:32;100429.06;;;25.83;40.32
34370;BME280;20635;55.812;37.560;2022-12-20T02:03:58;100418.16;;;25.82;40.72
34370;BME280;20635;55.812;37.560;2022-12-20T02:06:26;100417.00;;;25.83;41.12
34370;BME280;20635;55.812;37.560;2022-12-20T02:08:55;100413.34;;;25.82;40.56
34370;BME280;20635;55.812;37.560;2022-12-20T02:14:30;100406.28;;;25.85;40.48
34370;BME280;20635;55.812;37.560;2022-12-20T02:20:02;100397.00;;;25.84;40.70
34370;BME280;20635;55.812;37.560;2022-12-20T02:22:54;100389.13;;;25.86;40.51
34370;BME280;20635;55.812;37.560;2022-12-20T02:25:45;100387.47;;;25.85;40.71
34370;BME280;20635;55.812;37.560;2022-12-20T02:30:48;100383.63;;;25.81;40.68
34370;BME280;20635;55.812;37.560;2022-12-20T02:33:18;100387.59;;;25.80;40.38
34370;BME280;20635;55.812;37.560;2022-12-20T02:35:46;100374.38;;;25.80;40.54
34370;BME280;20635;55.812;37.560;2022-12-20T02:38:42;100372.28;;;25.86;40.63
34370;BME280;20635;55.812;37.560;2022-12-20T02:41:26;100373.41;;;25.85;40.79
34370;BME280;20635;55.812;37.560;2022-12-20T02:44:04;100365.63;;;25.82;40.95
34370;BME280;20635;55.812;37.560;2022-12-20T02:46:52;100354.41;;;25.82;40.15
34370;BME280;20635;55.812;37.560;2022-12-20T02:49:24;100356.72;;;25.80;40.23
34370;BME280;20635;55.812;37.560;2022-12-20T02:51:53;100353.91;;;25.80;40.63
34370;BME280;20635;55.812;37.560;2022-12-20T02:54:21;100355.56;;;25.81;40.70
34370;BME280;20635;55.812;37.560;2022-12-20T02:56:53;100352.75;;;25.81;41.12
34370;BME280;20635;55.812;37.560;2022-12-20T02:59:34;100344.31;;;25.81;41.60
34370;BME280;20635;55.812;37.560;2022-12-20T03:02:03;100338.38;;;25.83;39.92
34370;BME280;20635;55.812;37.560;2022-12-20T03:04:35;100341.72;;;25.85;39.30
34370;BME280;20635;55.812;37.560;2022-12-20T03:07:05;100342.53;;;25.85;39.13
34370;BME280;20635;55.812;37.560;2022-12-20T03:09:34;100332.13;;;25.86;39.11
34370;BME280;20635;55.812;37.560;2022-12-20T03:12:02;100333.78;;;25.87;39.19
34370;BME280;20635;55.812;37.560;2022-12-20T03:14:30;100324.72;;;25.90;38.84
34370;BME280;20635;55.812;37.560;2022-12-20T03:16:58;100314.63;;;25.89;38.96
34370;BME280;20635;55.812;37.560;2022-12-20T03:19:25;100300.78;;;25.92;38.63
34370;BME280;20635;55.812;37.560;2022-12-20T03:21:51;100294.00;;;25.93;38.75
34370;BME280;20635;55.812;37.560;2022-12-20T03:24:17;100302.13;;;25.95;38.42
34370;BME280;20635;55.812;37.560;2022-12-20T03:26:44;100302.94;;;25.95;38.34
34370;BME280;20635;55.812;37.560;2022-12-20T03:29:10;100291.72;;;25.95;38.22
34370;BME280;20635;55.812;37.560;2022-12-20T03:31:37;100299.50;;;25.98;38.23
34370;BME280;20635;55.812;37.560;2022-12-20T03:34:03;100292.72;;;25.99;38.20
34370;BME280;20635;55.812;37.560;2022-12-20T03:36:29;100288.75;;;26.00;38.18
34370;BME280;20635;55.812;37.560;2022-12-20T03:38:59;100293.22;;;26.01;37.97
34370;BME280;20635;55.812;37.560;2022-12-20T03:41:27;100275.22;;;26.02;37.84
34370;BME280;20635;55.812;37.560;2022-12-20T03:43:53;100276.91;;;26.03;37.73
34370;BME280;20635;55.812;37.560;2022-12-20T03:46:21;100268.13;;;26.05;37.57
34370;BME280;20635;55.812;37.560;2022-12-20T03:48:47;100272.28;;;26.08;37.42
34370;BME280;20635;55.812;37.560;2022-12-20T03:51:13;100261.06;;;26.08;37.26
34370;BME280;20635;55.812;37.560;2022-12-20T03:53:39;100259.91;;;26.09;37.27
34370;BME280;20635;55.812;37.560;2022-12-20T03:56:05;100248.31;;;26.10;37.37
34370;BME280;20635;55.812;37.560;2022-12-20T03:58:31;100255.59;;;26.11;36.91
34370;BME280;20635;55.812;37.560;2022-12-20T04:00:57;100244.06;;;26.13;36.65
34370;BME280;20635;55.812;37.560;2022-12-20T04:03:39;100242.91;;;26.14;36.56
34370;BME280;20635;55.812;37.560;2022-12-20T04:06:05;100236.13;;;26.15;36.45
34370;BME280;20635;55.812;37.560;2022-12-20T04:08:31;100234.13;;;26.15;36.11
34370;BME280;20635;55.812;37.560;2022-12-20T04:10:57;100224.88;;;26.15;36.16
34370;BME280;20635;55.812;37.560;2022-12-20T04:13:51;100225.06;;;26.18;35.88
34370;BME280;20635;55.812;37.560;2022-12-20T04:16:20;100223.09;;;26.19;35.81
34370;BME280;20635;55.812;37.560;2022-12-20T04:18:47;100223.09;;;26.19;35.74
34370;BME280;20635;55.812;37.560;2022-12-20T04:21:14;100220.28;;;26.19;35.72
34370;BME280;20635;55.812;37.560;2022-12-20T04:23:44;100227.22;;;26.21;35.92
34370;BME280;20635;55.812;37.560;2022-12-20T04:26:11;100224.09;;;26.23;35.80
34370;BME280;20635;55.812;37.560;2022-12-20T04:28:38;100218.13;;;26.24;35.74
34370;BME280;20635;55.812;37.560;2022-12-20T04:31:07;100216.16;;;26.25;35.70
34370;BME280;20635;55.812;37.560;2022-12-20T04:33:36;100214.19;;;26.25;35.60
34370;BME280;20635;55.812;37.560;2022-12-20T04:36:06;100215.84;;;26.26;35.57
34370;BME280;20635;55.812;37.560;2022-12-20T04:38:34;100220.31;;;26.27;35.58
34370;BME280;20635;55.812;37.560;2022-12-20T04:41:00;100218.31;;;26.28;35.40
34370;BME280;20635;55.812;37.560;2022-12-20T04:43:35;100227.25;;;26.30;35.26
34370;BME280;20635;55.812;37.560;2022-12-20T04:46:03;100225.28;;;26.30;35.31
34370;BME280;20635;55.812;37.560;2022-12-20T04:48:29;100211.22;;;26.30;35.32
34370;BME280;20635;55.812;37.560;2022-12-20T04:50:55;100217.66;;;26.31;35.03
34370;BME280;20635;55.812;37.560;2022-12-20T04:53:22;100214.88;;;26.31;34.82
34370;BME280;20635;55.812;37.560;2022-12-20T04:56:08;100215.34;;;26.33;34.81
34370;BME280;20635;55.812;37.560;2022-12-20T04:58:35;100211.38;;;26.34;34.56
34370;BME280;20635;55.812;37.560;2022-12-20T05:01:03;100204.94;;;26.34;34.56
34370;BME280;20635;55.812;37.560;2022-12-20T05:03:37;100197.31;;;26.34;34.61
34370;BME280;20635;55.812;37.560;2022-12-20T05:06:04;100195.38;;;26.35;34.45
34370;BME280;20635;55.812;37.560;2022-12-20T05:08:32;100199.00;;;26.35;34.36
34370;BME280;20635;55.812;37.560;2022-12-20T05:10:59;100190.25;;;26.37;34.42
34370;BME280;20635;55.812;37.560;2022-12-20T05:13:25;100189.41;;;26.36;34.44
34370;BME280;20635;55.812;37.560;2022-12-20T05:15:52;100187.78;;;26.35;34.18
34370;BME280;20635;55.812;37.560;2022-12-20T05:18:23;100190.25;;;26.37;34.21
34370;BME280;20635;55.812;37.560;2022-12-20T05:20:59;100188.25;;;26.37;34.24
34370;BME280;20635;55.812;37.560;2022-12-20T05:23:47;100177.84;;;26.38;34.40
34370;BME280;20635;55.812;37.560;2022-12-20T05:26:41;100189.59;;;26.40;33.98
34370;BME280;20635;55.812;37.560;2022-12-20T05:29:08;100184.28;;;26.38;33.91
34370;BME280;20635;55.812;37.560;2022-12-20T05:31:34;100170.22;;;26.38;33.70
34370;BME280;20635;55.812;37.560;2022-12-20T05:34:01;100161.81;;;26.38;33.94
34370;BME280;20635;55.812;37.560;2022-12-20T05:36:30;100150.56;;;26.38;33.73
34370;BME280;20635;55.812;37.560;2022-12-20T05:38:57;100147.44;;;26.40;33.78
34370;BME280;20635;55.812;37.560;2022-12-20T05:41:25;100149.91;;;26.41;33.85
34370;BME280;20635;55.812;37.560;2022-12-20T05:43:55;100149.91;;;26.41;33.83
34370;BME280;20635;55.812;37.560;2022-12-20T05:46:21;100145.47;;;26.40;33.79
34370;BME280;20635;55.812;37.560;2022-12-20T05:48:55;100152.72;;;26.41;33.84
34370;BME280;20635;55.812;37.560;2022-12-20T05:51:22;100146.75;;;26.43;33.48
34370;BME280;20635;55.812;37.560;2022-12-20T05:54:01;100146.50;;;26.44;33.70
34370;BME280;20635;55.812;37.560;2022-12-20T05:56:54;100146.50;;;26.44;33.57
34370;BME280;20635;55.812;37.560;2022-12-20T05:59:26;100142.00;;;26.43;33.43
34370;BME280;20635;55.812;37.560;2022-12-20T06:01:52;100154.09;;;26.44;33.40
34370;BME280;20635;55.812;37.560;2022-12-20T06:04:20;100144.50;;;26.45;33.33
34370;BME280;20635;55.812;37.560;2022-12-20T06:06:47;100132.44;;;26.44;33.44
34370;BME280;20635;55.812;37.560;2022-12-20T06:09:16;100115.56;;;26.44;33.32
34370;BME280;20635;55.812;37.560;2022-12-20T06:11:47;100124.50;;;26.46;33.46
34370;BME280;20635;55.812;37.560;2022-12-20T06:14:14;100124.50;;;26.46;33.17
34370;BME280;20635;55.812;37.560;2022-12-20T06:16:44;100124.00;;;26.44;33.48
34370;BME280;20635;55.812;37.560;2022-12-20T06:19:11;100129.28;;;26.46;33.37
34370;BME280;20635;55.812;37.560;2022-12-20T06:21:38;100130.94;;;26.47;33.11
34370;BME280;20635;55.812;37.560;2022-12-20T06:24:05;100131.75;;;26.47;33.16
34370;BME280;20635;55.812;37.560;2022-12-20T06:26:31;100122.50;;;26.47;33.40
34370;BME280;20635;55.812;37.560;2022-12-20T06:29:03;100118.53;;;26.48;33.04
34370;BME280;20635;55.812;37.560;2022-12-20T06:31:47;100119.03;;;26.50;33.30
34370;BME280;20635;55.812;37.560;2022-12-20T06:34:13;100109.78;;;26.49;33.04
34370;BME280;20635;55.812;37.560;2022-12-20T06:36:41;100109.78;;;26.49;33.11
34370;BME280;20635;55.812;37.560;2022-12-20T06:39:12;100112.09;;;26.56;33.43
34370;BME280;20635;55.812;37.560;2022-12-20T06:41:46;100095.06;;;26.52;33.06
34370;BME280;20635;55.812;37.560;2022-12-20T06:44:12;100095.41;;;26.51;32.82
34370;BME280;20635;55.812;37.560;2022-12-20T06:46:38;100097.38;;;26.50;33.05
34370;BME280;20635;55.812;37.560;2022-12-20T06:49:04;100088.94;;;26.50;32.80
34370;BME280;20635;55.812;37.560;2022-12-20T06:51:31;100078.88;;;26.49;32.95
34370;BME280;20635;55.812;37.560;2022-12-20T06:53:58;100076.06;;;26.49;32.95
34370;BME280;20635;55.812;37.560;2022-12-20T06:56:25;100068.47;;;26.50;32.73
34370;BME280;20635;55.812;37.560;2022-12-20T06:58:52;100070.44;;;26.49;32.72
34370;BME280;20635;55.812;37.560;2022-12-20T07:01:18;100063.66;;;26.50;32.59
34370;BME280;20635;55.812;37.560;2022-12-20T07:03:44;100060.84;;;26.50;32.88
34370;BME280;20635;55.812;37.560;2022-12-20T07:06:10;100062.50;;;26.51;32.94
34370;BME280;20635;55.812;37.560;2022-12-20T07:08:36;100044.81;;;26.51;32.91
34370;BME280;20635;55.812;37.560;2022-12-20T07:11:04;100047.28;;;26.52;32.76
34370;BME280;20635;55.812;37.560;2022-12-20T07:13:30;100042.50;;;26.53;32.96
34370;BME280;20635;55.812;37.560;2022-12-20T07:16:01;100039.34;;;26.54;32.89
34370;BME280;20635;55.812;37.560;2022-12-20T07:18:28;100028.47;;;26.53;33.00
34370;BME280;20635;55.812;37.560;2022-12-20T07:20:58;100030.94;;;26.54;32.58
34370;BME280;20635;55.812;37.560;2022-12-20T07:23:25;100028.13;;;26.54;32.67
34370;BME280;20635;55.812;37.560;2022-12-20T07:25:53;100020.84;;;26.53;32.52
34370;BME280;20635;55.812;37.560;2022-12-20T07:28:19;100012.41;;;26.53;32.62
34370;BME280;20635;55.812;37.560;2022-12-20T07:30:45;100004.00;;;26.53;32.64
34370;BME280;20635;55.812;37.560;2022-12-20T07:33:11;99994.38;;;26.54;32.45
34370;BME280;20635;55.812;37.560;2022-12-20T07:35:37;99983.16;;;26.54;32.57
34370;BME280;20635;55.812;37.560;2022-12-20T07:38:03;99973.56;;;26.55;32.40
34370;BME280;20635;55.812;37.560;2022-12-20T07:40:30;99971.91;;;26.54;32.59
34370;BME280;20635;55.812;37.560;2022-12-20T07:42:56;99967.09;;;26.55;32.17
34370;BME280;20635;55.812;37.560;2022-12-20T07:45:23;99961.13;;;26.56;32.23
34370;BME280;20635;55.812;37.560;2022-12-20T07:47:49;99956.69;;;26.55;32.46
34370;BME280;20635;55.812;37.560;2022-12-20T07:50:15;99952.72;;;26.56;32.46
34370;BME280;20635;55.812;37.560;2022-12-20T07:52:43;99941.47;;;26.56;32.25
34370;BME280;20635;55.812;37.560;2022-12-20T07:55:12;99937.00;;;26.55;32.26
34370;BME280;20635;55.812;37.560;2022-12-20T07:57:42;99930.56;;;26.55;32.16
34370;BME280;20635;55.812;37.560;2022-12-20T08:00:09;99929.09;;;26.58;32.19
34370;BME280;20635;55.812;37.560;2022-12-20T08:02:43;99921.47;;;26.58;32.11
34370;BME280;20635;55.812;37.560;2022-12-20T08:05:12;99907.75;;;26.56;32.00
34370;BME280;20635;55.812;37.560;2022-12-20T08:07:39;99902.94;;;26.57;32.11
34370;BME280;20635;55.812;37.560;2022-12-20T08:10:07;99895.38;;;26.58;31.99
34370;BME280;20635;55.812;37.560;2022-12-20T08:12:34;99897.00;;;26.59;32.04
34370;BME280;20635;55.812;37.560;2022-12-20T08:15:01;99900.63;;;26.59;31.89
34370;BME280;20635;55.812;37.560;2022-12-20T08:17:27;99900.63;;;26.59;32.03
34370;BME280;20635;55.812;37.560;2022-12-20T08:19:53;99899.81;;;26.59;32.10
34370;BME280;20635;55.812;37.560;2022-12-20T08:22:19;99903.44;;;26.59;31.75
34370;BME280;20635;55.812;37.560;2022-12-20T08:24:45;99907.09;;;26.60;31.90
34370;BME280;20635;55.812;37.560;2022-12-20T08:27:11;99896.19;;;26.58;32.20
34370;BME280;20635;55.812;37.560;2022-12-20T08:29:37;99895.84;;;26.60;32.09
34370;BME280;20635;55.812;37.560;2022-12-20T08:32:03;99901.47;;;26.60;31.85
34370;BME280;20635;55.812;37.560;2022-12-20T08:34:29;99885.41;;;26.60;31.81
34370;BME280;20635;55.812;37.560;2022-12-20T08:36:55;99882.59;;;26.60;31.86
34370;BME280;20635;55.812;37.560;2022-12-20T08:39:21;99883.44;;;26.61;31.68
34370;BME280;20635;55.812;37.560;2022-12-20T08:41:47;99889.41;;;26.59;31.91
34370;BME280;20635;55.812;37.560;2022-12-20T08:44:13;99887.06;;;26.61;31.64
34370;BME280;20635;55.812;37.560;2022-12-20T08:46:39;99886.25;;;26.61;31.58
34370;BME280;20635;55.812;37.560;2022-12-20T08:49:05;99868.56;;;26.60;31.80
34370;BME280;20635;55.812;37.560;2022-12-20T08:51:31;99864.91;;;26.60;31.60
34370;BME280;20635;55.812;37.560;2022-12-20T08:53:57;99873.84;;;26.62;31.33
34370;BME280;20635;55.812;37.560;2022-12-20T08:56:23;99876.66;;;26.62;31.91
34370;BME280;20635;55.812;37.560;2022-12-20T08:58:49;99866.56;;;26.61;31.68
34370;BME280;20635;55.812;37.560;2022-12-20T09:01:17;99855.31;;;26.61;31.39
34370;BME280;20635;55.812;37.560;2022-12-20T09:03:44;99848.88;;;26.60;31.58
34370;BME280;20635;55.812;37.560;2022-12-20T09:06:18;99844.59;;;26.63;31.85
34370;BME280;20635;55.812;37.560;2022-12-20T09:08:45;99842.94;;;26.62;31.47
34370;BME280;20635;55.812;37.560;2022-12-20T09:13:44;99824.91;;;26.63;31.28
34370;BME280;20635;55.812;37.560;2022-12-20T09:16:13;99826.06;;;26.62;31.50
34370;BME280;20635;55.812;37.560;2022-12-20T09:18:39;99817.66;;;26.62;31.28
34370;BME280;20635;55.812;37.560;2022-12-20T09:21:06;99813.97;;;26.61;31.39
34370;BME280;20635;55.812;37.560;2022-12-20T09:23:33;99804.72;;;26.61;31.26
34370;BME280;20635;55.812;37.560;2022-12-20T09:26:10;99799.25;;;26.64;31.50
34370;BME280;20635;55.812;37.560;2022-12-20T09:28:36;99787.53;;;26.62;31.41
34370;BME280;20635;55.812;37.560;2022-12-20T09:31:05;99783.91;;;26.62;31.12
34370;BME280;20635;55.812;37.560;2022-12-20T09:33:32;99784.75;;;26.62;31.50
34370;BME280;20635;55.812;37.560;2022-12-20T09:35:59;99780.75;;;26.63;31.24
34370;BME280;20635;55.812;37.560;2022-12-20T09:38:26;99779.59;;;26.64;31.51
34370;BME280;20635;55.812;37.560;2022-12-20T09:40:55;99769.50;;;26.63;31.20
34370;BME280;20635;55.812;37.560;2022-12-20T09:43:22;99769.16;;;26.65;31.39
34370;BME280;20635;55.812;37.560;2022-12-20T09:45:54;99763.22;;;26.66;31.39
34370;BME280;20635;55.812;37.560;2022-12-20T09:48:31;99757.59;;;26.66;31.35
34370;BME280;20635;55.812;37.560;2022-12-20T09:56:27;99742.38;;;26.67;31.13
34370;BME280;20635;55.812;37.560;2022-12-20T09:59:10;99740.38;;;26.68;31.33
34370;BME280;20635;55.812;37.560;2022-12-20T10:01:37;99726.34;;;26.68;31.20
34370;BME280;20635;55.812;37.560;2022-12-20T10:04:09;99723.16;;;26.69;31.08
34370;BME280;20635;55.812;37.560;2022-12-20T10:14:48;99704.59;;;26.77;31.01
34370;BME280;20635;55.812;37.560;2022-12-20T10:23:19;99690.81;;;26.84;30.73
34370;BME280;20635;55.812;37.560;2022-12-20T10:25:52;99681.22;;;26.85;30.72
34370;BME280;20635;55.812;37.560;2022-12-20T10:28:20;99683.34;;;26.88;30.56
34370;BME280;20635;55.812;37.560;2022-12-20T10:30:50;99669.78;;;26.90;30.51
34370;BME280;20635;55.812;37.560;2022-12-20T10:33:20;99671.56;;;26.95;30.62
34370;BME280;20635;55.812;37.560;2022-12-20T10:35:48;99671.19;;;26.96;30.43
34370;BME280;20635;55.812;37.560;2022-12-20T10:38:16;99665.72;;;27.00;30.26
34370;BME280;20635;55.812;37.560;2022-12-20T10:40:59;99666.31;;;27.05;30.40
34370;BME280;20635;55.812;37.560;2022-12-20T10:43:26;99650.13;;;27.02;30.39
34370;BME280;20635;55.812;37.560;2022-12-20T10:46:01;99645.47;;;27.06;30.49
34370;BME280;20635;55.812;37.560;2022-12-20T10:48:36;99640.69;;;27.07;30.04
34370;BME280;20635;55.812;37.560;2022-12-20T10:53:36;99633.06;;;27.08;29.85
34370;BME280;20635;55.812;37.560;2022-12-20T10:56:17;99631.56;;;27.10;30.24
34370;BME280;20635;55.812;37.560;2022-12-20T10:59:02;99627.13;;;27.09;30.08
34370;BME280;20635;55.812;37.560;2022-12-20T11:01:30;99631.94;;;27.09;29.98
34370;BME280;20635;55.812;37.560;2022-12-20T11:04:01;99625.78;;;27.06;30.02
34370;BME280;20635;55.812;37.560;2022-12-20T11:09:23;99637.19;;;27.10;29.99
34370;BME280;20635;55.812;37.560;2022-12-20T11:14:36;99636.19;;;27.06;30.00
34370;BME280;20635;55.812;37.560;2022-12-20T11:17:50;99632.09;;;27.03;29.98
34370;BME280;20635;55.812;37.560;2022-12-20T11:48:01;99627.31;;;27.04;29.70
34370;BME280;20635;55.812;37.560;2022-12-20T11:53:31;99616.38;;;27.02;29.82
34370;BME280;20635;55.812;37.560;2022-12-20T11:56:25;99620.72;;;27.00;29.82
34370;BME280;20635;55.812;37.560;2022-12-20T12:01:32;99610.66;;;26.99;29.91
34370;BME280;20635;55.812;37.560;2022-12-20T12:04:08;99602.53;;;26.97;29.69
34370;BME280;20635;55.812;37.560;2022-12-20T12:06:38;99593.28;;;26.97;29.60
34370;BME280;20635;55.812;37.560;2022-12-20T12:09:07;99598.09;;;26.96;29.56
34370;BME280;20635;55.812;37.560;2022-12-20T12:11:50;99590.97;;;26.99;29.70
34370;BME280;20635;55.812;37.560;2022-12-20T12:19:54;99590.00;;;26.95;29.62
34370;BME280;20635;55.812;37.560;2022-12-20T12:22:28;99586.38;;;26.94;29.43
34370;BME280;20635;55.812;37.560;2022-12-20T12:25:01;99590.34;;;26.93;29.62
34370;BME280;20635;55.812;37.560;2022-12-20T12:27:28;99593.16;;;26.93;29.40
34370;BME280;20635;55.812;37.560;2022-12-20T12:29:56;99599.63;;;26.94;29.25
34370;BME280;20635;55.812;37.560;2022-12-20T12:33:02;99598.09;;;26.96;29.47
34370;BME280;20635;55.812;37.560;2022-12-20T12:35:56;99598.09;;;26.96;29.51
34370;BME280;20635;55.812;37.560;2022-12-20T12:39:19;99595.63;;;26.95;29.47
34370;BME280;20635;55.812;37.560;2022-12-20T12:44:30;99602.91;;;26.96;29.57
34370;BME280;20635;55.812;37.560;2022-12-20T12:47:01;99587.06;;;26.91;29.23
34370;BME280;20635;55.812;37.560;2022-12-20T12:49:30;99593.50;;;26.92;29.34
34370;BME280;20635;55.812;37.560;2022-12-20T12:52:00;99591.88;;;26.91;29.33
34370;BME280;20635;55.812;37.560;2022-12-20T12:54:38;99595.97;;;26.93;29.40
34370;BME280;20635;55.812;37.560;2022-12-20T12:57:13;99593.50;;;26.92;29.27
34370;BME280;20635;55.812;37.560;2022-12-20T12:59:43;99598.31;;;26.91;29.17
34370;BME280;20635;55.812;37.560;2022-12-20T13:04:56;99593.16;;;26.93;29.23
34370;BME280;20635;55.812;37.560;2022-12-20T13:17:53;99584.84;;;26.97;29.54
34370;BME280;20635;55.812;37.560;2022-12-20T13:20:28;99581.91;;;26.93;29.15
34370;BME280;20635;55.812;37.560;2022-12-20T13:25:50;99587.88;;;26.92;29.08
34370;BME280;20635;55.812;37.560;2022-12-20T13:33:43;99575.81;;;26.91;29.15
34370;BME280;20635;55.812;37.560;2022-12-20T13:38:49;99581.09;;;26.93;28.88
34370;BME280;20635;55.812;37.560;2022-12-20T13:41:35;99579.94;;;26.94;29.07
34370;BME280;20635;55.812;37.560;2022-12-20T13:49:24;99576.28;;;26.93;28.86
34370;BME280;20635;55.812;37.560;2022-12-20T13:54:46;99584.38;;;26.95;29.01
34370;BME280;20635;55.812;37.560;2022-12-20T13:57:32;99586.03;;;26.96;28.91
34370;BME280;20635;55.812;37.560;2022-12-20T14:00:22;99580.03;;;26.97;28.83
34370;BME280;20635;55.812;37.560;2022-12-20T14:02:50;99583.56;;;26.94;28.68
34370;BME280;20635;55.812;37.560;2022-12-20T14:05:22;99584.84;;;26.97;28.60
34370;BME280;20635;55.812;37.560;2022-12-20T14:07:58;99583.22;;;26.96;28.61
34370;BME280;20635;55.812;37.560;2022-12-20T14:10:27;99578.41;;;26.96;28.62
34370;BME280;20635;55.812;37.560;2022-12-20T14:12:54;99575.59;;;26.96;28.44
34370;BME280;20635;55.812;37.560;2022-12-20T14:15:40;99567.28;;;27.00;28.97
34370;BME280;20635;55.812;37.560;2022-12-20T14:18:23;99574.91;;;26.99;28.60
34370;BME280;20635;55.812;37.560;2022-12-20T14:21:01;99566.94;;;27.01;28.83
34370;BME280;20635;55.812;37.560;2022-12-20T14:26:06;99562.03;;;26.98;28.57
34370;BME280;20635;55.812;37.560;2022-12-20T14:28:38;99559.22;;;26.98;28.69
34370;BME280;20635;55.812;37.560;2022-12-20T14:31:19;99561.66;;;27.00;28.68
34370;BME280;20635;55.812;37.560;2022-12-20T14:33:47;99556.41;;;26.98;28.47
34370;BME280;20635;55.812;37.560;2022-12-20T14:36:22;99560.13;;;27.02;28.37
34370;BME280;20635;55.812;37.560;2022-12-20T14:38:50;99568.94;;;27.01;28.30
34370;BME280;20635;55.812;37.560;2022-12-20T14:41:38;99559.81;;;27.04;28.58
34370;BME280;20635;55.812;37.560;2022-12-20T14:46:32;99566.47;;;26.99;28.64
34370;BME280;20635;55.812;37.560;2022-12-20T14:51:48;99569.75;;;27.01;28.36
34370;BME280;20635;55.812;37.560;2022-12-20T14:54:34;99563.78;;;27.03;28.52
34370;BME280;20635;55.812;37.560;2022-12-20T14:57:10;99562.50;;;27.00;28.34
34370;BME280;20635;55.812;37.560;2022-12-20T14:59:56;99570.25;;;27.03;28.40
34370;BME280;20635;55.812;37.560;2022-12-20T15:02:34;99565.75;;;27.02;28.33